sensor_id;sensor_type;location;lat;lon;timestamp;pressure;altitude;pressure_sealevel;temperature;humidity
49723;BME280;43484;43.608;1.458;2022-11-20T00:01:21;99737.41;;;7.12;100.00
49723;BME280;43484;43.608;1.458;2022-11-20T00:03:48;99736.94;;;7.00;100.00
49723;BME280;43484;43.608;1.458;2022-11-20T00:06:16;99741.66;;;7.11;100.00
49723;BME280;43484;43.608;1.458;2022-11-20T00:08:44;99740.78;;;7.11;100.00
49723;BME280;43484;43.608;1.458;2022-11-20T00:11:19;99737.34;;;7.10;100.00
49723;BME280;43484;43.608;1.458;2022-11-20T00:13:47;99743.94;;;7.05;100.00
49723;BME280;43484;43.608;1.458;2022-11-20T00:16:16;99742.94;;;7.02;100.00
49723;BME280;43484;43.608;1.458;2022-11-20T00:18:43;99737.00;;;7.01;100.00
49723;BME280;43484;43.608;1.458;2022-11-20T00:21:18;99749.03;;;7.05;100.00
49723;BME280;43484;43.608;1.458;2022-11-20T00:23:48;99748.41;;;7.11;100.00
49723;BME280;43484;43.608;1.458;2022-11-20T00:26:16;99745.63;;;7.05;100.00
49723;BME280;43484;43.608;1.458;2022-11-20T00:28:44;99753.06;;;7.00;100.00
49723;BME280;43484;43.608;1.458;2022-11-20T00:31:13;99754.19;;;7.07;100.00
49723;BME280;43484;43.608;1.458;2022-11-20T00:33:41;99749.16;;;6.88;100.00
49723;BME280;43484;43.608;1.458;2022-11-20T00:36:20;99753.34;;;6.87;100.00
49723;BME280;43484;43.608;1.458;2022-11-20T00:38:51;99741.03;;;6.96;100.00
49723;BME280;43484;43.608;1.458;2022-11-20T00:41:18;99748.50;;;6.93;100.00
49723;BME280;43484;43.608;1.458;2022-11-20T00:43:44;99745.13;;;6.93;100.00
49723;BME280;43484;43.608;1.458;2022-11-20T00:46:16;99738.31;;;6.93;100.00
49723;BME280;43484;43.608;1.458;2022-11-20T00:48:43;99745.06;;;6.91;100.00
49723;BME280;43484;43.608;1.458;2022-11-20T00:51:12;99747.72;;;6.94;100.00
49723;BME280;43484;43.608;1.458;2022-11-20T00:53:39;99743.56;;;6.96;100.00
49723;BME280;43484;43.608;1.458;2022-11-20T00:56:09;99740.03;;;6.93;100.00
49723;BME280;43484;43.608;1.458;2022-11-20T00:58:38;99738.34;;;7.14;100.00
49723;BME280;43484;43.608;1.458;2022-11-20T01:01:08;99740.91;;;7.14;100.00
49723;BME280;43484;43.608;1.458;2022-11-20T01:03:41;99750.16;;;7.12;100.00
49723;BME280;43484;43.608;1.458;2022-11-20T01:08:42;99742.09;;;7.01;100.00
49723;BME280;43484;43.608;1.458;2022-11-20T01:11:11;99743.81;;;7.02;100.00
49723;BME280;43484;43.608;1.458;2022-11-20T01:13:39;99743.00;;;7.03;100.00
49723;BME280;43484;43.608;1.458;2022-11-20T01:18:40;99745.91;;;6.92;100.00
49723;BME280;43484;43.608;1.458;2022-11-20T01:21:10;99749.25;;;7.10;100.00
49723;BME280;43484;43.608;1.458;2022-11-20T01:23:39;99751.88;;;6.92;100.00
49723;BME280;43484;43.608;1.458;2022-11-20T01:26:11;99753.81;;;6.98;100.00
49723;BME280;43484;43.608;1.458;2022-11-20T01:28:39;99751.28;;;6.98;100.00
49723;BME280;43484;43.608;1.458;2022-11-20T01:31:18;99759.31;;;6.88;100.00
49723;BME280;43484;43.608;1.458;2022-11-20T01:33:46;99754.78;;;6.81;100.00
49723;BME280;43484;43.608;1.458;2022-11-20T01:36:15;99744.72;;;6.84;100.00
49723;BME280;43484;43.608;1.458;2022-11-20T01:38:42;99739.09;;;6.91;100.00
49723;BME280;43484;43.608;1.458;2022-11-20T01:41:10;99746.19;;;6.79;100.00
49723;BME280;43484;43.608;1.458;2022-11-20T01:43:59;99749.09;;;6.67;100.00
49723;BME280;43484;43.608;1.458;2022-11-20T01:46:26;99742.47;;;6.71;100.00
49723;BME280;43484;43.608;1.458;2022-11-20T01:49:03;99732.28;;;6.71;100.00
49723;BME280;43484;43.608;1.458;2022-11-20T01:51:34;99736.97;;;6.62;100.00
49723;BME280;43484;43.608;1.458;2022-11-20T01:54:06;99732.81;;;6.64;100.00
49723;BME280;43484;43.608;1.458;2022-11-20T01:56:38;99733.63;;;6.63;100.00
49723;BME280;43484;43.608;1.458;2022-11-20T01:59:08;99740.38;;;6.62;100.00
49723;BME280;43484;43.608;1.458;2022-11-20T02:01:36;99724.25;;;6.62;100.00
49723;BME280;43484;43.608;1.458;2022-11-20T02:04:02;99725.34;;;6.48;100.00
49723;BME280;43484;43.608;1.458;2022-11-20T02:06:32;99723.75;;;6.50;100.00
49723;BME280;43484;43.608;1.458;2022-11-20T02:09:01;99718.16;;;6.39;100.00
49723;BME280;43484;43.608;1.458;2022-11-20T02:11:30;99724.13;;;6.40;100.00
49723;BME280;43484;43.608;1.458;2022-11-20T02:13:56;99718.22;;;6.41;100.00
49723;BME280;43484;43.608;1.458;2022-11-20T02:16:27;99723.06;;;6.34;100.00
49723;BME280;43484;43.608;1.458;2022-11-20T02:18:56;99722.44;;;6.40;100.00
49723;BME280;43484;43.608;1.458;2022-11-20T02:24:18;99713.97;;;6.40;100.00
49723;BME280;43484;43.608;1.458;2022-11-20T02:26:56;99707.66;;;6.31;100.00
49723;BME280;43484;43.608;1.458;2022-11-20T02:29:28;99700.25;;;6.36;100.00
49723;BME280;43484;43.608;1.458;2022-11-20T02:31:58;99709.47;;;6.34;100.00
49723;BME280;43484;43.608;1.458;2022-11-20T02:34:27;99699.88;;;6.28;100.00
49723;BME280;43484;43.608;1.458;2022-11-20T02:36:55;99699.09;;;6.29;100.00
49723;BME280;43484;43.608;1.458;2022-11-20T02:39:24;99699.69;;;6.24;100.00
49723;BME280;43484;43.608;1.458;2022-11-20T02:41:53;99701.94;;;6.18;100.00
49723;BME280;43484;43.608;1.458;2022-11-20T02:44:20;99696.97;;;6.19;100.00
49723;BME280;43484;43.608;1.458;2022-11-20T02:46:46;99694.53;;;6.22;100.00
49723;BME280;43484;43.608;1.458;2022-11-20T02:49:13;99695.13;;;6.17;100.00
49723;BME280;43484;43.608;1.458;2022-11-20T02:51:39;99689.09;;;6.15;100.00
49723;BME280;43484;43.608;1.458;2022-11-20T02:54:06;99698.50;;;6.16;100.00
49723;BME280;43484;43.608;1.458;2022-11-20T02:56:32;99700.03;;;6.12;100.00
49723;BME280;43484;43.608;1.458;2022-11-20T02:58:59;99696.66;;;6.13;100.00
49723;BME280;43484;43.608;1.458;2022-11-20T03:01:25;99699.75;;;6.25;100.00
49723;BME280;43484;43.608;1.458;2022-11-20T03:03:52;99700.22;;;6.17;100.00
49723;BME280;43484;43.608;1.458;2022-11-20T03:06:20;99691.00;;;6.19;100.00
49723;BME280;43484;43.608;1.458;2022-11-20T03:08:47;99691.25;;;6.06;100.00
49723;BME280;43484;43.608;1.458;2022-11-20T03:11:14;99697.19;;;6.06;100.00
49723;BME280;43484;43.608;1.458;2022-11-20T03:13:40;99691.25;;;6.06;100.00
49723;BME280;43484;43.608;1.458;2022-11-20T03:16:21;99691.31;;;6.07;100.00
49723;BME280;43484;43.608;1.458;2022-11-20T03:18:48;99686.13;;;6.04;100.00
49723;BME280;43484;43.608;1.458;2022-11-20T03:21:15;99680.41;;;6.10;100.00
49723;BME280;43484;43.608;1.458;2022-11-20T03:23:43;99681.47;;;5.96;100.00
49723;BME280;43484;43.608;1.458;2022-11-20T03:26:18;99674.31;;;5.87;100.00
49723;BME280;43484;43.608;1.458;2022-11-20T03:28:50;99670.91;;;5.87;100.00
49723;BME280;43484;43.608;1.458;2022-11-20T03:31:20;99675.38;;;5.92;100.00
49723;BME280;43484;43.608;1.458;2022-11-20T03:33:47;99660.84;;;5.90;100.00
49723;BME280;43484;43.608;1.458;2022-11-20T03:36:16;99660.00;;;5.89;100.00
49723;BME280;43484;43.608;1.458;2022-11-20T03:38:43;99656.53;;;5.87;100.00
49723;BME280;43484;43.608;1.458;2022-11-20T03:41:13;99654.09;;;5.90;100.00
49723;BME280;43484;43.608;1.458;2022-11-20T03:43:40;99645.53;;;5.88;100.00
49723;BME280;43484;43.608;1.458;2022-11-20T03:46:07;99649.97;;;5.92;100.00
49723;BME280;43484;43.608;1.458;2022-11-20T03:48:34;99645.00;;;5.78;100.00
49723;BME280;43484;43.608;1.458;2022-11-20T03:51:16;99652.09;;;5.83;100.00
49723;BME280;43484;43.608;1.458;2022-11-20T03:53:44;99652.16;;;5.85;100.00
49723;BME280;43484;43.608;1.458;2022-11-20T03:56:12;99644.75;;;5.72;100.00
49723;BME280;43484;43.608;1.458;2022-11-20T03:58:40;99644.81;;;5.73;100.00
49723;BME280;43484;43.608;1.458;2022-11-20T04:01:08;99646.34;;;5.70;100.00
49723;BME280;43484;43.608;1.458;2022-11-20T04:03:36;99645.91;;;5.78;100.00
49723;BME280;43484;43.608;1.458;2022-11-20T04:06:20;99639.88;;;5.76;100.00
49723;BME280;43484;43.608;1.458;2022-11-20T04:08:47;99647.16;;;5.69;100.00
49723;BME280;43484;43.608;1.458;2022-11-20T04:11:24;99650.28;;;5.63;100.00
49723;BME280;43484;43.608;1.458;2022-11-20T04:13:53;99652.91;;;5.65;100.00
49723;BME280;43484;43.608;1.458;2022-11-20T04:16:21;99645.72;;;5.56;100.00
49723;BME280;43484;43.608;1.458;2022-11-20T04:18:56;99642.03;;;5.50;100.00
49723;BME280;43484;43.608;1.458;2022-11-20T04:21:24;99633.03;;;5.56;100.00
49723;BME280;43484;43.608;1.458;2022-11-20T04:23:52;99632.16;;;5.56;100.00
49723;BME280;43484;43.608;1.458;2022-11-20T04:26:23;99622.59;;;5.50;100.00
49723;BME280;43484;43.608;1.458;2022-11-20T04:28:51;99629.34;;;5.50;100.00
49723;BME280;43484;43.608;1.458;2022-11-20T04:31:20;99629.13;;;5.45;100.00
49723;BME280;43484;43.608;1.458;2022-11-20T04:33:47;99626.47;;;5.42;100.00
49723;BME280;43484;43.608;1.458;2022-11-20T04:38:45;99624.16;;;5.29;100.00
49723;BME280;43484;43.608;1.458;2022-11-20T04:41:16;99622.72;;;5.34;100.00
49723;BME280;43484;43.608;1.458;2022-11-20T04:43:48;99617.13;;;5.24;100.00
49723;BME280;43484;43.608;1.458;2022-11-20T04:46:16;99611.28;;;5.26;100.00
49723;BME280;43484;43.608;1.458;2022-11-20T04:48:43;99613.06;;;5.27;100.00
49723;BME280;43484;43.608;1.458;2022-11-20T04:51:10;99609.69;;;5.28;100.00
49723;BME280;43484;43.608;1.458;2022-11-20T04:53:36;99619.53;;;5.21;100.00
49723;BME280;43484;43.608;1.458;2022-11-20T04:56:06;99614.28;;;5.18;100.00
49723;BME280;43484;43.608;1.458;2022-11-20T04:58:33;99618.25;;;5.12;100.00
49723;BME280;43484;43.608;1.458;2022-11-20T05:01:05;99616.09;;;5.02;100.00
49723;BME280;43484;43.608;1.458;2022-11-20T05:03:32;99620.03;;;5.13;100.00
49723;BME280;43484;43.608;1.458;2022-11-20T05:06:05;99613.72;;;5.05;100.00
49723;BME280;43484;43.608;1.458;2022-11-20T05:08:32;99606.00;;;5.22;100.00
49723;BME280;43484;43.608;1.458;2022-11-20T05:11:04;99610.81;;;5.16;100.00
49723;BME280;43484;43.608;1.458;2022-11-20T05:13:30;99614.28;;;5.18;100.00
49723;BME280;43484;43.608;1.458;2022-11-20T05:16:19;99617.63;;;5.17;100.00
49723;BME280;43484;43.608;1.458;2022-11-20T05:18:46;99611.09;;;5.22;100.00
49723;BME280;43484;43.608;1.458;2022-11-20T05:21:14;99618.88;;;5.07;100.00
49723;BME280;43484;43.608;1.458;2022-11-20T05:23:41;99614.22;;;5.16;100.00
49723;BME280;43484;43.608;1.458;2022-11-20T05:26:13;99616.59;;;5.13;100.00
49723;BME280;43484;43.608;1.458;2022-11-20T05:28:40;99614.88;;;5.12;100.00
49723;BME280;43484;43.608;1.458;2022-11-20T05:31:18;99609.88;;;5.13;100.00
49723;BME280;43484;43.608;1.458;2022-11-20T05:33:52;99610.94;;;5.01;100.00
49723;BME280;43484;43.608;1.458;2022-11-20T05:36:19;99616.16;;;5.04;100.00
49723;BME280;43484;43.608;1.458;2022-11-20T05:38:46;99608.41;;;5.01;100.00
49723;BME280;43484;43.608;1.458;2022-11-20T05:41:18;99609.66;;;4.91;100.00
49723;BME280;43484;43.608;1.458;2022-11-20T05:43:46;99610.59;;;4.93;100.00
49723;BME280;43484;43.608;1.458;2022-11-20T05:46:15;99602.59;;;4.86;100.00
49723;BME280;43484;43.608;1.458;2022-11-20T05:48:44;99611.81;;;4.84;100.00
49723;BME280;43484;43.608;1.458;2022-11-20T05:51:14;99606.53;;;4.97;100.00
49723;BME280;43484;43.608;1.458;2022-11-20T05:53:41;99615.75;;;4.95;100.00
49723;BME280;43484;43.608;1.458;2022-11-20T05:56:16;99608.63;;;4.88;100.00
49723;BME280;43484;43.608;1.458;2022-11-20T05:58:44;99611.03;;;4.85;100.00
49723;BME280;43484;43.608;1.458;2022-11-20T06:03:38;99607.81;;;4.89;100.00
49723;BME280;43484;43.608;1.458;2022-11-20T06:06:05;99615.38;;;4.87;100.00
49723;BME280;43484;43.608;1.458;2022-11-20T06:08:32;99612.84;;;4.87;100.00
49723;BME280;43484;43.608;1.458;2022-11-20T06:11:03;99619.59;;;4.87;100.00
49723;BME280;43484;43.608;1.458;2022-11-20T06:13:30;99622.63;;;4.80;100.00
49723;BME280;43484;43.608;1.458;2022-11-20T06:15:57;99628.47;;;4.79;100.00
49723;BME280;43484;43.608;1.458;2022-11-20T06:18:26;99626.03;;;4.80;100.00
49723;BME280;43484;43.608;1.458;2022-11-20T06:21:08;99619.72;;;4.72;100.00
49723;BME280;43484;43.608;1.458;2022-11-20T06:23:35;99621.31;;;4.70;100.00
49723;BME280;43484;43.608;1.458;2022-11-20T06:26:07;99616.97;;;4.68;100.00
49723;BME280;43484;43.608;1.458;2022-11-20T06:28:34;99619.56;;;4.69;100.00
49723;BME280;43484;43.608;1.458;2022-11-20T06:31:02;99614.56;;;4.71;100.00
49723;BME280;43484;43.608;1.458;2022-11-20T06:33:29;99614.41;;;4.68;100.00
49723;BME280;43484;43.608;1.458;2022-11-20T06:35:58;99617.91;;;4.70;100.00
49723;BME280;43484;43.608;1.458;2022-11-20T06:38:29;99621.31;;;4.70;100.00
49723;BME280;43484;43.608;1.458;2022-11-20T06:40:55;99618.41;;;4.63;100.00
49723;BME280;43484;43.608;1.458;2022-11-20T06:43:23;99614.28;;;4.65;100.00
49723;BME280;43484;43.608;1.458;2022-11-20T06:45:53;99619.88;;;4.75;100.00
49723;BME280;43484;43.608;1.458;2022-11-20T06:48:21;99612.63;;;4.65;100.00
49723;BME280;43484;43.608;1.458;2022-11-20T06:50:47;99615.16;;;4.65;100.00
49723;BME280;43484;43.608;1.458;2022-11-20T06:53:14;99605.84;;;4.66;100.00
49723;BME280;43484;43.608;1.458;2022-11-20T06:55:44;99616.16;;;4.69;100.00
49723;BME280;43484;43.608;1.458;2022-11-20T06:58:12;99613.94;;;4.75;100.00
49723;BME280;43484;43.608;1.458;2022-11-20T07:00:39;99617.47;;;4.78;100.00
49723;BME280;43484;43.608;1.458;2022-11-20T07:03:08;99613.56;;;4.85;100.00
49723;BME280;43484;43.608;1.458;2022-11-20T07:05:35;99612.34;;;4.77;100.00
49723;BME280;43484;43.608;1.458;2022-11-20T07:08:02;99613.25;;;4.79;100.00
49723;BME280;43484;43.608;1.458;2022-11-20T07:10:30;99611.38;;;4.92;100.00
49723;BME280;43484;43.608;1.458;2022-11-20T07:12:56;99613.56;;;4.85;100.00
49723;BME280;43484;43.608;1.458;2022-11-20T07:15:24;99624.50;;;4.84;100.00
49723;BME280;43484;43.608;1.458;2022-11-20T07:17:51;99624.97;;;4.75;100.00
49723;BME280;43484;43.608;1.458;2022-11-20T07:20:18;99635.66;;;4.70;100.00
49723;BME280;43484;43.608;1.458;2022-11-20T07:22:44;99630.09;;;4.94;100.00
49723;BME280;43484;43.608;1.458;2022-11-20T07:25:11;99634.97;;;4.90;100.00
49723;BME280;43484;43.608;1.458;2022-11-20T07:27:37;99637.19;;;4.84;100.00
49723;BME280;43484;43.608;1.458;2022-11-20T07:30:04;99638.81;;;4.82;100.00
49723;BME280;43484;43.608;1.458;2022-11-20T07:32:31;99635.59;;;4.86;100.00
49723;BME280;43484;43.608;1.458;2022-11-20T07:34:57;99634.03;;;5.05;100.00
49723;BME280;43484;43.608;1.458;2022-11-20T07:37:24;99630.03;;;4.93;100.00
49723;BME280;43484;43.608;1.458;2022-11-20T07:39:51;99635.25;;;4.96;100.00
49723;BME280;43484;43.608;1.458;2022-11-20T07:42:17;99632.06;;;5.00;100.00
49723;BME280;43484;43.608;1.458;2022-11-20T07:44:44;99629.59;;;5.01;100.00
49723;BME280;43484;43.608;1.458;2022-11-20T07:47:10;99623.94;;;5.07;100.00
49723;BME280;43484;43.608;1.458;2022-11-20T07:49:37;99628.28;;;5.27;100.00
49723;BME280;43484;43.608;1.458;2022-11-20T07:52:03;99639.59;;;5.16;100.00
49723;BME280;43484;43.608;1.458;2022-11-20T07:54:30;99639.97;;;5.24;100.00
49723;BME280;43484;43.608;1.458;2022-11-20T07:56:57;99636.94;;;5.31;100.00
49723;BME280;43484;43.608;1.458;2022-11-20T07:59:24;99630.06;;;5.47;100.00
49723;BME280;43484;43.608;1.458;2022-11-20T08:01:50;99635.16;;;5.47;100.00
49723;BME280;43484;43.608;1.458;2022-11-20T08:04:17;99634.78;;;5.57;100.00
49723;BME280;43484;43.608;1.458;2022-11-20T08:06:44;99635.09;;;5.65;100.00
49723;BME280;43484;43.608;1.458;2022-11-20T08:09:10;99649.53;;;5.47;100.00
49723;BME280;43484;43.608;1.458;2022-11-20T08:11:37;99653.44;;;5.40;100.00
49723;BME280;43484;43.608;1.458;2022-11-20T08:14:21;99650.97;;;5.59;100.00
49723;BME280;43484;43.608;1.458;2022-11-20T08:16:49;99645.63;;;5.72;100.00
49723;BME280;43484;43.608;1.458;2022-11-20T08:19:17;99648.31;;;5.75;100.00
49723;BME280;43484;43.608;1.458;2022-11-20T08:21:44;99656.81;;;5.76;100.00
49723;BME280;43484;43.608;1.458;2022-11-20T08:24:11;99658.66;;;5.80;100.00
49723;BME280;43484;43.608;1.458;2022-11-20T08:26:39;99669.88;;;5.83;100.00
49723;BME280;43484;43.608;1.458;2022-11-20T08:29:06;99671.84;;;5.89;100.00
49723;BME280;43484;43.608;1.458;2022-11-20T08:31:33;99682.88;;;5.89;100.00
49723;BME280;43484;43.608;1.458;2022-11-20T08:34:00;99689.97;;;5.96;100.00
49723;BME280;43484;43.608;1.458;2022-11-20T08:36:34;99693.50;;;6.00;100.00
49723;BME280;43484;43.608;1.458;2022-11-20T08:39:02;99698.00;;;6.05;100.00
49723;BME280;43484;43.608;1.458;2022-11-20T08:41:29;99708.44;;;6.11;100.00
49723;BME280;43484;43.608;1.458;2022-11-20T08:44:01;99710.84;;;6.08;100.00
49723;BME280;43484;43.608;1.458;2022-11-20T08:46:35;99711.72;;;6.09;100.00
49723;BME280;43484;43.608;1.458;2022-11-20T08:49:07;99721.72;;;6.04;100.00
49723;BME280;43484;43.608;1.458;2022-11-20T08:51:35;99731.38;;;5.94;100.00
49723;BME280;43484;43.608;1.458;2022-11-20T08:54:02;99747.84;;;6.02;100.00
49723;BME280;43484;43.608;1.458;2022-11-20T08:56:29;99761.63;;;6.07;100.00
49723;BME280;43484;43.608;1.458;2022-11-20T08:58:56;99756.56;;;6.07;100.00
49723;BME280;43484;43.608;1.458;2022-11-20T09:01:42;99760.25;;;6.13;100.00
49723;BME280;43484;43.608;1.458;2022-11-20T09:04:09;99770.53;;;6.16;100.00
49723;BME280;43484;43.608;1.458;2022-11-20T09:06:37;99775.25;;;6.26;100.00
49723;BME280;43484;43.608;1.458;2022-11-20T09:09:04;99774.78;;;6.35;100.00
49723;BME280;43484;43.608;1.458;2022-11-20T09:11:34;99783.19;;;6.32;100.00
49723;BME280;43484;43.608;1.458;2022-11-20T09:14:01;99789.09;;;6.33;100.00
49723;BME280;43484;43.608;1.458;2022-11-20T09:16:29;99802.50;;;6.29;100.00
49723;BME280;43484;43.608;1.458;2022-11-20T09:18:55;99802.44;;;6.27;100.00
49723;BME280;43484;43.608;1.458;2022-11-20T09:21:42;99815.03;;;6.24;100.00
49723;BME280;43484;43.608;1.458;2022-11-20T09:24:08;99816.25;;;6.32;100.00
49723;BME280;43484;43.608;1.458;2022-11-20T09:26:35;99815.50;;;6.35;100.00
49723;BME280;43484;43.608;1.458;2022-11-20T09:29:01;99812.00;;;6.33;100.00
49723;BME280;43484;43.608;1.458;2022-11-20T09:31:28;99825.09;;;6.41;100.00
49723;BME280;43484;43.608;1.458;2022-11-20T09:33:55;99828.78;;;6.47;100.00
49723;BME280;43484;43.608;1.458;2022-11-20T09:36:21;99825.91;;;6.40;100.00
49723;BME280;43484;43.608;1.458;2022-11-20T09:38:48;99817.44;;;6.41;100.00
49723;BME280;43484;43.608;1.458;2022-11-20T09:48:31;99804.97;;;6.64;100.00
49723;BME280;43484;43.608;1.458;2022-11-20T09:55:55;99790.16;;;6.75;100.00
49723;BME280;43484;43.608;1.458;2022-11-20T09:58:35;99782.53;;;6.75;100.00
49723;BME280;43484;43.608;1.458;2022-11-20T10:01:15;99773.31;;;6.78;100.00
49723;BME280;43484;43.608;1.458;2022-11-20T10:03:56;99767.81;;;6.88;100.00
49723;BME280;43484;43.608;1.458;2022-11-20T10:06:30;99788.28;;;6.90;100.00
49723;BME280;43484;43.608;1.458;2022-11-20T10:09:31;99787.41;;;6.89;100.00
49723;BME280;43484;43.608;1.458;2022-11-20T10:14:49;99812.38;;;6.98;100.00
49723;BME280;43484;43.608;1.458;2022-11-20T10:22:53;99827.72;;;6.99;100.00
49723;BME280;43484;43.608;1.458;2022-11-20T10:25:37;99839.88;;;7.05;100.00
49723;BME280;43484;43.608;1.458;2022-11-20T10:30:45;99855.41;;;7.11;100.00
49723;BME280;43484;43.608;1.458;2022-11-20T10:33:22;99860.38;;;7.08;100.00
49723;BME280;43484;43.608;1.458;2022-11-20T10:38:50;99855.50;;;7.33;100.00
49723;BME280;43484;43.608;1.458;2022-11-20T10:41:23;99843.41;;;7.48;100.00
49723;BME280;43484;43.608;1.458;2022-11-20T10:46:44;99850.22;;;7.49;100.00
49723;BME280;43484;43.608;1.458;2022-11-20T10:49:16;99853.13;;;7.56;100.00
49723;BME280;43484;43.608;1.458;2022-11-20T10:57:46;99885.81;;;7.87;100.00
49723;BME280;43484;43.608;1.458;2022-11-20T11:00:17;99872.38;;;7.91;100.00
49723;BME280;43484;43.608;1.458;2022-11-20T11:02:48;99884.91;;;8.07;100.00
49723;BME280;43484;43.608;1.458;2022-11-20T11:07:58;99898.06;;;8.16;100.00
49723;BME280;43484;43.608;1.458;2022-11-20T11:13:28;99923.69;;;8.19;100.00
49723;BME280;43484;43.608;1.458;2022-11-20T11:15:55;99939.34;;;8.27;100.00
49723;BME280;43484;43.608;1.458;2022-11-20T11:18:30;99948.13;;;8.33;100.00
49723;BME280;43484;43.608;1.458;2022-11-20T11:20:58;99954.63;;;8.47;100.00
49723;BME280;43484;43.608;1.458;2022-11-20T11:23:41;99958.47;;;8.58;100.00
49723;BME280;43484;43.608;1.458;2022-11-20T11:26:19;99964.75;;;8.66;100.00
49723;BME280;43484;43.608;1.458;2022-11-20T11:28:57;99980.44;;;8.75;100.00
49723;BME280;43484;43.608;1.458;2022-11-20T11:31:26;99988.22;;;8.78;100.00
49723;BME280;43484;43.608;1.458;2022-11-20T11:36:39;99983.69;;;8.71;100.00
49723;BME280;43484;43.608;1.458;2022-11-20T11:39:14;99978.00;;;8.78;100.00
49723;BME280;43484;43.608;1.458;2022-11-20T11:41:41;99989.78;;;8.97;100.00
49723;BME280;43484;43.608;1.458;2022-11-20T11:44:31;99989.00;;;9.22;100.00
49723;BME280;43484;43.608;1.458;2022-11-20T11:47:26;99985.00;;;9.52;100.00
49723;BME280;43484;43.608;1.458;2022-11-20T11:55:17;99995.38;;;9.80;100.00
49723;BME280;43484;43.608;1.458;2022-11-20T11:57:51;99991.25;;;9.83;100.00
49723;BME280;43484;43.608;1.458;2022-11-20T12:00:22;100007.44;;;9.82;100.00
49723;BME280;43484;43.608;1.458;2022-11-20T12:05:51;99994.88;;;9.90;100.00
49723;BME280;43484;43.608;1.458;2022-11-20T12:08:32;99998.84;;;10.05;100.00
49723;BME280;43484;43.608;1.458;2022-11-20T12:11:24;100005.59;;;10.03;100.00
49723;BME280;43484;43.608;1.458;2022-11-20T12:16:30;99992.06;;;10.31;100.00
49723;BME280;43484;43.608;1.458;2022-11-20T12:18:58;99993.09;;;10.36;100.00
49723;BME280;43484;43.608;1.458;2022-11-20T12:21:32;99992.13;;;10.33;100.00
49723;BME280;43484;43.608;1.458;2022-11-20T12:32:47;99986.47;;;10.69;100.00
49723;BME280;43484;43.608;1.458;2022-11-20T12:35:52;99985.84;;;10.76;100.00
49723;BME280;43484;43.608;1.458;2022-11-20T12:41:31;99988.84;;;10.90;100.00
49723;BME280;43484;43.608;1.458;2022-11-20T12:53:04;99981.69;;;11.08;100.00
49723;BME280;43484;43.608;1.458;2022-11-20T12:55:42;99986.81;;;11.08;100.00
49723;BME280;43484;43.608;1.458;2022-11-20T12:58:25;99985.34;;;11.16;100.00
49723;BME280;43484;43.608;1.458;2022-11-20T13:01:17;99989.44;;;11.09;100.00
49723;BME280;43484;43.608;1.458;2022-11-20T13:04:23;99980.81;;;11.07;100.00
49723;BME280;43484;43.608;1.458;2022-11-20T13:06:56;99980.72;;;11.04;100.00
49723;BME280;43484;43.608;1.458;2022-11-20T13:09:23;99983.22;;;11.01;100.00
49723;BME280;43484;43.608;1.458;2022-11-20T13:12:08;99957.38;;;10.67;100.00
49723;BME280;43484;43.608;1.458;2022-11-20T13:20:12;99838.53;;;10.34;100.00
49723;BME280;43484;43.608;1.458;2022-11-20T13:25:21;99742.28;;;10.11;100.00
49723;BME280;43484;43.608;1.458;2022-11-20T13:27:48;99668.47;;;9.98;100.00
49723;BME280;43484;43.608;1.458;2022-11-20T13:32:59;99593.28;;;9.93;100.00
49723;BME280;43484;43.608;1.458;2022-11-20T13:35:32;99560.78;;;9.89;100.00
49723;BME280;43484;43.608;1.458;2022-11-20T13:40:50;99516.63;;;9.96;100.00
49723;BME280;43484;43.608;1.458;2022-11-20T13:43:42;99502.31;;;10.04;100.00
49723;BME280;43484;43.608;1.458;2022-11-20T13:46:09;99494.53;;;9.99;100.00
49723;BME280;43484;43.608;1.458;2022-11-20T13:51:37;99481.47;;;10.22;100.00
49723;BME280;43484;43.608;1.458;2022-11-20T13:57:12;99467.06;;;10.25;100.00
49723;BME280;43484;43.608;1.458;2022-11-20T14:02:26;99461.19;;;10.29;100.00
49723;BME280;43484;43.608;1.458;2022-11-20T14:04:57;99448.84;;;10.49;100.00
49723;BME280;43484;43.608;1.458;2022-11-20T14:07:34;99436.25;;;10.56;100.00
49723;BME280;43484;43.608;1.458;2022-11-20T14:10:02;99443.59;;;10.78;100.00
49723;BME280;43484;43.608;1.458;2022-11-20T14:12:33;99443.66;;;10.81;100.00
49723;BME280;43484;43.608;1.458;2022-11-20T14:15:00;99453.06;;;10.82;100.00
49723;BME280;43484;43.608;1.458;2022-11-20T14:17:34;99447.34;;;10.95;100.00
49723;BME280;43484;43.608;1.458;2022-11-20T14:20:05;99456.16;;;11.06;100.00
49723;BME280;43484;43.608;1.458;2022-11-20T14:22:32;99452.69;;;11.04;100.00
49723;BME280;43484;43.608;1.458;2022-11-20T14:27:44;99455.63;;;11.22;100.00
49723;BME280;43484;43.608;1.458;2022-11-20T14:30:15;99459.22;;;11.30;100.00
49723;BME280;43484;43.608;1.458;2022-11-20T14:32:44;99444.66;;;11.28;100.00
49723;BME280;43484;43.608;1.458;2022-11-20T14:35:20;99445.63;;;11.34;100.00
49723;BME280;43484;43.608;1.458;2022-11-20T14:37:48;99444.09;;;11.44;100.00
49723;BME280;43484;43.608;1.458;2022-11-20T14:42:52;99448.59;;;11.56;100.00
49723;BME280;43484;43.608;1.458;2022-11-20T14:45:19;99455.75;;;11.69;100.00
49723;BME280;43484;43.608;1.458;2022-11-20T14:47:48;99452.53;;;11.79;100.00
49723;BME280;43484;43.608;1.458;2022-11-20T14:50:28;99474.19;;;11.96;100.00
49723;BME280;43484;43.608;1.458;2022-11-20T14:52:59;99497.28;;;11.96;100.00
49723;BME280;43484;43.608;1.458;2022-11-20T14:55:33;99500.91;;;12.05;100.00
49723;BME280;43484;43.608;1.458;2022-11-20T14:58:05;99525.75;;;12.08;100.00
49723;BME280;43484;43.608;1.458;2022-11-20T15:00:34;99537.81;;;12.10;100.00
49723;BME280;43484;43.608;1.458;2022-11-20T15:03:00;99560.97;;;12.13;100.00
49723;BME280;43484;43.608;1.458;2022-11-20T15:05:47;99590.13;;;12.15;100.00
49723;BME280;43484;43.608;1.458;2022-11-20T15:08:15;99619.97;;;12.10;100.00
49723;BME280;43484;43.608;1.458;2022-11-20T15:10:47;99653.44;;;12.15;100.00